Time;durP1;ratioP1;P1;durP2;ratioP2;P2;SDS_P1;SDS_P2;PMS_P1;PMS_P2;Temp;Humidity;BMP_temperature;BMP_pressure;BME280_temperature;BME280_humidity;BME280_pressure;Samples;Min_cycle;Max_cycle;Signal;HPM_P1;HPM_P2
2023/10/30 00:01:47;;;;;;;3.23;1.10;;;;;;;10.72;100.00;99008.94;5014196;28;20515;-81
2023/10/30 00:04:13;;;;;;;5.05;1.00;;;;;;;10.76;100.00;99008.31;4997485;28;20614;-79
2023/10/30 00:06:39;;;;;;;2.75;1.00;;;;;;;10.86;100.00;99013.25;5031654;28;20108;-80
2023/10/30 00:09:04;;;;;;;5.22;1.25;;;;;;;10.87;100.00;99014.91;5013949;28;20457;-79
2023/10/30 00:11:30;;;;;;;4.20;1.00;;;;;;;10.81;100.00;99006.88;5031407;28;20034;-79
2023/10/30 00:13:55;;;;;;;1.77;1.07;;;;;;;10.77;100.00;98999.31;5015027;28;20330;-79
2023/10/30 00:16:21;;;;;;;3.80;1.07;;;;;;;10.76;100.00;99018.19;5023282;28;20283;-79
2023/10/30 00:18:47;;;;;;;2.00;1.27;;;;;;;10.80;100.00;99024.75;5001967;28;20030;-79
2023/10/30 00:21:13;;;;;;;2.80;1.13;;;;;;;10.89;100.00;99007.50;5027141;28;20098;-78
2023/10/30 00:23:38;;;;;;;2.20;0.90;;;;;;;10.88;100.00;99015.72;5010519;28;20057;-78
2023/10/30 00:26:04;;;;;;;4.33;1.20;;;;;;;10.96;100.00;99018.19;5012533;28;20032;-78
2023/10/30 00:28:31;;;;;;;;;;;;;;;10.90;100.00;99014.47;5021603;28;20132;-79
2023/10/30 00:30:57;;;;;;;9.05;1.35;;;;;;;10.92;100.00;99009.75;5016548;28;19945;-78
2023/10/30 00:33:22;;;;;;;5.95;1.95;;;;;;;10.95;100.00;99006.66;5010677;28;20061;-79
2023/10/30 00:35:47;;;;;;;4.83;1.60;;;;;;;11.02;100.00;99011.19;5024704;28;20026;-79
2023/10/30 00:38:13;;;;;;;3.37;1.47;;;;;;;10.95;100.00;98993.31;5027147;28;20132;-78
2023/10/30 00:40:38;;;;;;;3.50;0.83;;;;;;;10.91;100.00;98989.44;5025826;28;20179;-78
2023/10/30 00:43:05;;;;;;;4.65;1.00;;;;;;;11.05;100.00;99013.44;5026295;28;20025;-78
2023/10/30 00:45:31;;;;;;;4.97;1.70;;;;;;;11.04;100.00;98993.09;5029406;28;20037;-78
2023/10/30 00:47:58;;;;;;;4.15;1.15;;;;;;;10.97;100.00;98999.25;5012413;28;20502;-78
2023/10/30 00:50:23;;;;;;;5.25;1.25;;;;;;;11.04;100.00;98993.09;5027278;28;20037;-79
2023/10/30 00:52:48;;;;;;;3.47;0.88;;;;;;;11.14;100.00;98998.81;5001145;28;20556;-78
2023/10/30 00:55:14;;;;;;;6.47;1.30;;;;;;;11.11;100.00;98994.72;5014574;28;20030;-77
2023/10/30 00:57:39;;;;;;;2.10;1.33;;;;;;;11.00;100.00;98987.34;5009542;28;20108;-78
2023/10/30 01:00:05;;;;;;;3.70;1.55;;;;;;;11.03;100.00;98991.44;4997992;28;20092;-78
2023/10/30 01:02:31;;;;;;;1.90;0.88;;;;;;;10.99;100.00;98981.19;5029080;28;20610;-77
2023/10/30 01:04:57;;;;;;;4.17;1.50;;;;;;;11.04;100.00;98982.41;5029869;28;20025;-78
2023/10/30 01:07:22;;;;;;;1.85;1.25;;;;;;;11.03;100.00;98994.13;5009136;28;20863;-78
2023/10/30 01:09:49;;;;;;;2.17;0.87;;;;;;;11.07;100.00;98990.81;5017704;28;20120;-78
2023/10/30 01:12:14;;;;;;;2.22;1.05;;;;;;;11.00;100.00;98990.00;5005209;28;20445;-78
2023/10/30 01:14:40;;;;;;;3.03;1.17;;;;;;;11.07;100.00;98980.13;5021619;28;20091;-77
2023/10/30 01:17:05;;;;;;;6.05;1.38;;;;;;;11.13;100.00;98992.66;5013054;28;20022;-78
2023/10/30 01:19:31;;;;;;;7.90;1.00;;;;;;;11.07;100.00;98974.81;5029262;28;20051;-78
2023/10/30 01:21:56;;;;;;;6.60;1.10;;;;;;;11.17;100.00;98983.22;5013258;28;20533;-77
2023/10/30 01:24:23;;;;;;;2.72;0.95;;;;;;;11.02;100.00;98979.13;5021221;28;20385;-78
2023/10/30 01:26:48;;;;;;;4.20;1.20;;;;;;;11.09;100.00;98979.94;5028263;28;20060;-77
2023/10/30 01:29:13;;;;;;;5.80;1.03;;;;;;;11.15;100.00;98971.91;5028151;28;20040;-78
2023/10/30 01:31:39;;;;;;;9.37;1.57;;;;;;;11.11;100.00;98969.88;5005683;28;20041;-77
2023/10/30 01:34:05;;;;;;;3.30;1.50;;;;;;;11.02;100.00;98979.13;5024903;28;20030;-77
2023/10/30 01:36:31;;;;;;;2.17;1.38;;;;;;;11.18;100.00;98989.38;5012989;28;20029;-78
2023/10/30 01:38:58;;;;;;;4.95;1.10;;;;;;;11.19;100.00;98958.94;5028420;28;20108;-77
2023/10/30 01:41:23;;;;;;;9.02;2.28;;;;;;;11.21;100.00;98959.56;5008837;28;20088;-78
2023/10/30 01:43:49;;;;;;;6.15;1.40;;;;;;;11.25;100.00;98963.47;5030730;28;20513;-78
2023/10/30 01:46:14;;;;;;;4.93;1.05;;;;;;;11.19;100.00;98964.28;5011307;28;20076;-78
2023/10/30 01:48:41;;;;;;;4.45;1.30;;;;;;;11.14;100.00;98946.25;5013295;28;20048;-77
2023/10/30 01:51:06;;;;;;;3.95;1.00;;;;;;;11.19;100.00;98945.59;5028808;28;20037;-77
2023/10/30 01:53:33;;;;;;;8.88;2.08;;;;;;;11.16;100.00;98975.41;5001484;28;20037;-79
2023/10/30 01:56:01;;;;;;;6.05;1.20;;;;;;;11.07;100.00;98998.84;5021460;28;20050;-77
2023/10/30 01:58:26;;;;;;;8.20;1.17;;;;;;;11.12;100.00;98998.22;5013067;28;20478;-78
2023/10/30 02:00:53;;;;;;;9.20;1.92;;;;;;;11.16;100.00;98997.59;5013239;28;20023;-79
2023/10/30 02:03:19;;;;;;;8.73;2.20;;;;;;;11.28;100.00;99015.66;5010705;28;20044;-77
2023/10/30 02:05:44;;;;;;;13.20;1.30;;;;;;;11.11;100.00;99015.28;5013575;28;20100;-77
2023/10/30 02:08:11;;;;;;;8.70;2.15;;;;;;;10.97;100.00;99009.13;5028644;28;20037;-77
2023/10/30 02:10:36;;;;;;;;;;;;;;;11.07;100.00;99025.53;5012860;28;20482;-76
2023/10/30 02:13:07;;;;;;;6.70;1.45;;;;;;;11.05;100.00;99018.78;5032988;28;19920;-77
2023/10/30 02:15:32;;;;;;;8.88;1.95;;;;;;;11.13;100.00;99026.56;5031288;28;20033;-76
2023/10/30 02:17:58;;;;;;;6.97;1.92;;;;;;;11.09;100.00;99049.38;5008116;28;20032;-77
2023/10/30 02:20:25;;;;;;;10.00;2.10;;;;;;;10.99;100.00;99061.31;5004490;28;20037;-77
2023/10/30 02:22:51;;;;;;;5.65;1.13;;;;;;;11.10;100.00;99051.84;5023279;28;20108;-78
2023/10/30 02:25:24;;;;;;;10.17;1.93;;;;;;;10.96;100.00;99053.72;5012143;28;20458;-76
2023/10/30 02:27:50;;;;;;;15.05;1.77;;;;;;;11.04;100.00;99063.34;5029453;28;20120;-78
2023/10/30 02:30:16;;;;;;;;;;;;;;;11.11;100.00;99060.69;5005319;28;20443;-76
2023/10/30 02:32:44;;;;;;;8.43;1.23;;;;;;;11.15;100.00;99061.91;5049412;28;19960;-77
2023/10/30 02:35:16;;;;;;;6.45;1.90;;;;;;;11.07;100.00;99030.06;5016069;28;20421;-77
2023/10/30 02:37:42;;;;;;;4.18;1.23;;;;;;;11.07;100.00;99038.06;5032456;28;20060;-77
2023/10/30 02:40:08;;;;;;;7.78;2.30;;;;;;;11.08;100.00;99048.56;5032182;28;20053;-77
2023/10/30 02:42:34;;;;;;;15.32;1.80;;;;;;;11.13;100.00;99046.09;5011689;28;20033;-77
2023/10/30 02:44:59;;;;;;;8.27;1.30;;;;;;;11.17;100.00;99041.16;5015765;28;20021;-77
2023/10/30 02:47:25;;;;;;;4.20;1.33;;;;;;;11.12;100.00;99039.13;5030264;28;20300;-76
2023/10/30 02:49:51;;;;;;;5.03;1.23;;;;;;;10.96;100.00;99015.50;5015504;28;20286;-77
2023/10/30 02:52:18;;;;;;;5.10;1.27;;;;;;;10.97;100.00;99039.31;5015606;28;20041;-77
2023/10/30 02:54:46;;;;;;;6.45;1.13;;;;;;;10.83;100.00;99035.00;5032068;28;20290;-76
2023/10/30 02:57:13;;;;;;;6.65;1.42;;;;;;;10.68;100.00;99031.75;5031787;28;20032;-77
2023/10/30 02:59:38;;;;;;;6.18;1.20;;;;;;;10.75;100.00;99016.56;5031732;28;20482;-76
2023/10/30 03:02:04;;;;;;;10.68;1.50;;;;;;;10.76;100.00;99007.50;5015581;28;20028;-76
2023/10/30 03:04:32;;;;;;;5.67;1.23;;;;;;;10.80;100.00;98994.59;5015342;28;20041;-75
2023/10/30 03:06:58;;;;;;;1.92;0.80;;;;;;;10.75;100.00;98989.88;5024519;28;20034;-78
2023/10/30 03:09:25;;;;;;;6.68;1.20;;;;;;;10.74;100.00;98985.53;5036655;28;20087;-76
2023/10/30 03:11:50;;;;;;;3.63;0.80;;;;;;;10.64;100.00;98985.13;5005483;28;20044;-77
2023/10/30 03:14:15;;;;;;;3.95;0.90;;;;;;;10.72;100.00;98995.59;5035717;28;20413;-76
2023/10/30 03:16:41;;;;;;;5.23;1.13;;;;;;;10.68;100.00;98975.69;5039072;28;20389;-77
2023/10/30 03:19:06;;;;;;;7.33;1.53;;;;;;;10.67;100.00;98992.72;5006082;28;20124;-77
2023/10/30 03:21:31;;;;;;;4.70;1.13;;;;;;;10.58;100.00;98989.44;5031363;28;20079;-76
2023/10/30 03:23:57;;;;;;;6.27;1.47;;;;;;;10.54;100.00;99005.03;5029872;28;20049;-77
2023/10/30 03:26:24;;;;;;;8.60;1.10;;;;;;;10.45;100.00;99011.59;5032793;28;20029;-77
2023/10/30 03:28:50;;;;;;;9.07;1.02;;;;;;;10.51;100.00;99032.16;5031204;28;20060;-77
2023/10/30 03:31:15;;;;;;;5.43;1.27;;;;;;;10.49;100.00;99017.38;5015075;28;20025;-77
2023/10/30 03:33:40;;;;;;;7.27;2.17;;;;;;;10.49;100.00;99042.19;5031418;28;20095;-77
2023/10/30 03:36:06;;;;;;;4.63;1.23;;;;;;;10.47;100.00;99035.44;5031316;28;20033;-76
2023/10/30 03:38:31;;;;;;;5.07;1.17;;;;;;;10.38;100.00;99029.44;5030952;28;20037;-75
2023/10/30 03:40:58;;;;;;;4.80;1.40;;;;;;;10.45;100.00;99030.28;5031469;28;20045;-77
2023/10/30 03:43:23;;;;;;;6.03;2.38;;;;;;;10.38;100.00;99047.31;5026704;28;20112;-77
2023/10/30 03:45:49;;;;;;;4.23;1.50;;;;;;;10.34;100.00;99057.56;5014863;28;20478;-77
2023/10/30 03:48:14;;;;;;;9.77;1.83;;;;;;;10.39;100.00;99079.09;5014386;28;20466;-76
2023/10/30 03:50:42;;;;;;;6.22;1.60;;;;;;;10.38;100.00;99074.81;5014672;28;20079;-76
2023/10/30 03:53:07;;;;;;;4.20;1.27;;;;;;;10.37;100.00;99094.47;5014666;28;20037;-77
2023/10/30 03:55:32;;;;;;;4.87;1.40;;;;;;;10.29;100.00;99082.16;5014379;28;20108;-76
2023/10/30 03:57:58;;;;;;;7.87;1.33;;;;;;;10.43;100.00;99093.69;5021973;28;20030;-78
2023/10/30 04:00:23;;;;;;;2.10;0.93;;;;;;;10.41;100.00;99090.41;5025512;28;20048;-76
2023/10/30 04:02:49;;;;;;;2.97;1.35;;;;;;;10.44;100.00;99084.69;5030937;28;20036;-78
2023/10/30 04:05:14;;;;;;;6.03;1.33;;;;;;;10.43;100.00;99080.34;5030953;28;20060;-75
2023/10/30 04:07:39;;;;;;;1.80;0.80;;;;;;;10.35;100.00;99108.03;5025803;28;20045;-76
2023/10/30 04:10:05;;;;;;;7.57;1.70;;;;;;;10.42;100.00;99102.72;5014148;28;20021;-77
2023/10/30 04:12:31;;;;;;;5.45;1.25;;;;;;;10.35;100.00;99118.72;5031780;28;20113;-76
2023/10/30 04:14:57;;;;;;;8.57;1.20;;;;;;;10.31;100.00;99113.97;5014360;28;20038;-77
2023/10/30 04:17:23;;;;;;;;;;;;;;;10.33;100.00;99125.28;5030710;28;20029;-76
2023/10/30 04:19:48;;;;;;;6.18;1.55;;;;;;;10.26;100.00;99108.41;5030114;28;20340;-77
2023/10/30 04:22:13;;;;;;;6.43;1.33;;;;;;;10.34;100.00;99119.72;5028843;28;20025;-76
2023/10/30 04:24:39;;;;;;;6.43;1.70;;;;;;;10.21;100.00;99089.47;5021645;28;20276;-77
2023/10/30 04:27:06;;;;;;;4.83;1.17;;;;;;;10.35;100.00;99120.56;5025474;28;20026;-77
2023/10/30 04:29:31;;;;;;;6.22;1.10;;;;;;;10.26;100.00;99095.06;5030240;28;20041;-78
2023/10/30 04:31:56;;;;;;;5.33;1.70;;;;;;;10.31;100.00;99105.97;5015372;28;20032;-79
2023/10/30 04:34:22;;;;;;;6.07;1.40;;;;;;;10.31;100.00;99098.78;5012200;28;20406;-79
2023/10/30 04:36:47;;;;;;;4.43;1.03;;;;;;;10.27;100.00;99100.19;5014578;28;20067;-78
2023/10/30 04:39:13;;;;;;;11.77;1.70;;;;;;;10.41;100.00;99125.09;5017688;28;20049;-75
2023/10/30 04:41:39;;;;;;;15.43;2.80;;;;;;;10.26;100.00;99111.06;5034986;28;20202;-79
2023/10/30 04:44:05;;;;;;;4.97;1.52;;;;;;;10.28;100.00;99115.22;5027615;28;20112;-78
2023/10/30 04:46:30;;;;;;;6.50;1.45;;;;;;;10.22;100.00;99117.81;5024468;28;20172;-79
2023/10/30 04:48:55;;;;;;;8.57;1.27;;;;;;;10.33;100.00;99142.09;5013986;28;20037;-78
2023/10/30 04:51:21;;;;;;;10.07;2.80;;;;;;;10.21;100.00;99126.81;5017238;28;20372;-77
2023/10/30 04:53:46;;;;;;;4.90;1.43;;;;;;;10.24;100.00;99147.78;5037859;28;20486;-77
2023/10/30 04:56:11;;;;;;;9.10;1.70;;;;;;;10.21;100.00;99150.81;5024742;28;20025;-76
2023/10/30 04:58:37;;;;;;;7.23;1.33;;;;;;;10.26;100.00;99146.56;5025653;28;20074;-75
2023/10/30 05:01:09;;;;;;;7.50;1.50;;;;;;;10.34;100.00;99148.25;5032457;28;20044;-77
2023/10/30 05:03:35;;;;;;;6.60;1.58;;;;;;;10.23;100.00;99151.44;5027985;28;20087;-77
2023/10/30 05:06:04;;;;;;;;;;;;;;;10.26;100.00;99181.22;5031124;28;20061;-77
2023/10/30 05:08:29;;;;;;;8.07;1.85;;;;;;;10.24;100.00;99174.44;5026329;28;19918;-76
2023/10/30 05:10:54;;;;;;;6.20;1.43;;;;;;;10.21;100.00;99183.69;5008080;28;20421;-77
2023/10/30 05:13:20;;;;;;;5.33;1.50;;;;;;;10.28;100.00;99181.03;5043854;28;20170;-74
2023/10/30 05:15:46;;;;;;;7.40;1.40;;;;;;;10.21;100.00;99185.50;5000806;28;20034;-76
2023/10/30 05:18:12;;;;;;;6.38;1.60;;;;;;;10.27;100.00;99195.38;5019008;28;20108;-76
2023/10/30 05:20:38;;;;;;;8.23;1.02;;;;;;;10.24;100.00;99195.78;5025714;28;20030;-79
2023/10/30 05:23:03;;;;;;;4.50;1.40;;;;;;;10.32;100.00;99193.81;5027074;28;20048;-76
2023/10/30 05:25:29;;;;;;;7.30;1.30;;;;;;;10.22;100.00;99184.50;5019969;28;20045;-78
2023/10/30 05:27:54;;;;;;;8.13;2.00;;;;;;;10.21;100.00;99201.50;5018367;28;20037;-77
2023/10/30 05:30:20;;;;;;;3.67;1.43;;;;;;;10.17;100.00;99201.09;5038364;28;20280;-76
2023/10/30 05:32:45;;;;;;;10.67;2.23;;;;;;;10.05;100.00;99211.47;5006702;28;20029;-76
2023/10/30 05:35:10;;;;;;;6.13;2.00;;;;;;;10.11;100.00;99226.72;5013241;28;20042;-77
2023/10/30 05:37:36;;;;;;;7.37;2.20;;;;;;;10.06;100.00;99222.97;5016321;28;20033;-75
2023/10/30 05:40:01;;;;;;;8.40;1.70;;;;;;;10.11;100.00;99250.72;5015629;28;20490;-79
2023/10/30 05:42:26;;;;;;;9.20;2.07;;;;;;;10.17;100.00;99250.94;5017557;28;20399;-78
2023/10/30 05:44:52;;;;;;;10.73;1.57;;;;;;;10.14;100.00;99250.31;5018111;28;20048;-76
2023/10/30 05:47:17;;;;;;;10.82;1.65;;;;;;;10.26;100.00;99252.44;5037060;28;20030;-79
2023/10/30 05:49:43;;;;;;;13.80;2.80;;;;;;;10.11;100.00;99250.72;5045229;28;20045;-78
2023/10/30 05:52:09;;;;;;;7.13;1.60;;;;;;;10.12;100.00;99260.34;5021004;28;20112;-76
2023/10/30 05:54:35;;;;;;;;;;;;;;;10.17;100.00;99277.63;5022706;28;20038;-77
2023/10/30 05:57:00;;;;;;;7.88;2.92;;;;;;;10.20;100.00;99270.03;5021270;28;19912;-77
2023/10/30 05:59:26;;;;;;;11.48;1.80;;;;;;;10.20;100.00;99274.53;5037500;28;20053;-77
2023/10/30 06:01:51;;;;;;;10.00;2.07;;;;;;;10.21;100.00;99286.84;5029713;28;20036;-78
2023/10/30 06:04:16;;;;;;;8.63;1.97;;;;;;;10.09;100.00;99284.75;5032687;28;20033;-77
2023/10/30 06:06:42;;;;;;;12.93;3.87;;;;;;;10.15;100.00;99291.94;5044966;28;20479;-78
2023/10/30 06:09:08;;;;;;;5.60;1.70;;;;;;;10.08;100.00;99288.41;5003968;28;20037;-77
2023/10/30 06:11:33;;;;;;;7.40;1.50;;;;;;;10.21;100.00;99305.50;5038299;28;20034;-78
2023/10/30 06:13:59;;;;;;;12.23;1.60;;;;;;;10.24;100.00;99291.81;5022056;28;20116;-76
2023/10/30 06:16:24;;;;;;;10.32;1.52;;;;;;;10.18;100.00;99297.91;5020741;28;20045;-76
2023/10/30 06:18:49;;;;;;;5.57;1.70;;;;;;;10.14;100.00;99295.66;5023450;28;20440;-77
2023/10/30 06:21:16;;;;;;;12.70;2.33;;;;;;;10.13;100.00;99291.31;5024619;28;20033;-76
2023/10/30 06:23:42;;;;;;;7.78;2.58;;;;;;;10.10;100.00;99291.72;5039595;28;20285;-78
2023/10/30 06:26:12;;;;;;;9.27;1.52;;;;;;;10.18;100.00;99305.91;5024323;28;20021;-78
2023/10/30 06:28:38;;;;;;;11.95;2.40;;;;;;;10.15;100.00;99304.47;5038090;28;20034;-77
2023/10/30 06:31:04;;;;;;;;;;;;;;;10.08;100.00;99299.06;5020758;28;20044;-78
2023/10/30 06:33:32;;;;;;;5.43;1.63;;;;;;;10.06;100.00;99293.13;5032269;28;19909;-77
2023/10/30 06:36:01;;;;;;;12.77;1.50;;;;;;;10.04;100.00;99292.47;5004602;28;20467;-78
2023/10/30 06:38:27;;;;;;;14.75;2.88;;;;;;;10.06;100.00;99295.78;5041750;28;20079;-77
2023/10/30 06:40:54;;;;;;;10.70;2.42;;;;;;;10.06;100.00;99295.78;5011210;28;20128;-76
2023/10/30 06:43:19;;;;;;;10.55;1.98;;;;;;;10.01;100.00;99292.88;5012299;28;20022;-76
2023/10/30 06:45:44;;;;;;;7.80;1.97;;;;;;;10.17;100.00;99310.44;5035596;28;20092;-77
2023/10/30 06:48:10;;;;;;;9.80;1.77;;;;;;;10.15;100.00;99302.63;5018499;28;20292;-76
2023/10/30 06:50:35;;;;;;;15.13;2.73;;;;;;;10.17;100.00;99304.28;5036611;28;20042;-77
2023/10/30 06:53:00;;;;;;;14.23;2.40;;;;;;;10.11;100.00;99306.72;5021072;28;20112;-78
2023/10/30 06:55:26;;;;;;;8.00;1.90;;;;;;;10.17;100.00;99304.28;5034960;28;20038;-76
2023/10/30 06:57:51;;;;;;;4.20;2.23;;;;;;;10.12;100.00;99303.00;5019512;28;20058;-74
2023/10/30 07:00:18;;;;;;;16.90;1.83;;;;;;;10.11;100.00;99319.19;5036078;28;20040;-77
2023/10/30 07:02:44;;;;;;;8.50;2.60;;;;;;;10.00;100.00;99328.56;5027643;28;20025;-76
2023/10/30 07:05:11;;;;;;;14.18;2.83;;;;;;;10.02;100.00;99323.88;5027942;28;20029;-78
2023/10/30 07:07:36;;;;;;;8.30;2.60;;;;;;;9.93;100.00;99322.38;5041802;28;20391;-76
2023/10/30 07:10:02;;;;;;;6.40;1.83;;;;;;;10.00;100.00;99331.22;5010985;28;20037;-75
2023/10/30 07:12:28;;;;;;;;;;;;;;;10.06;100.00;99357.09;5035713;28;20060;-77
2023/10/30 07:14:53;;;;;;;11.10;3.22;;;;;;;10.08;100.00;99346.25;5009414;28;19991;-76
2023/10/30 07:17:18;;;;;;;9.93;2.30;;;;;;;10.07;100.00;99344.63;5044792;28;20034;-76
2023/10/30 07:19:45;;;;;;;8.33;2.57;;;;;;;10.26;100.00;99353.78;5015526;28;20063;-76
2023/10/30 07:22:10;;;;;;;8.73;2.40;;;;;;;10.14;100.00;99335.66;5032528;28;20479;-79
2023/10/30 07:24:36;;;;;;;7.97;1.73;;;;;;;10.18;100.00;99337.91;5023858;28;20053;-76
2023/10/30 07:27:01;;;;;;;10.27;2.35;;;;;;;10.10;100.00;99326.38;4996402;28;20041;-78
2023/10/30 07:29:27;;;;;;;11.23;1.97;;;;;;;10.29;100.00;99353.41;5032401;28;20026;-78
2023/10/30 07:31:52;;;;;;;16.47;2.90;;;;;;;10.23;100.00;99344.34;5025964;28;20334;-77
2023/10/30 07:34:18;;;;;;;10.67;2.53;;;;;;;10.14;100.00;99338.31;5012624;28;20091;-78
2023/10/30 07:37:01;;;;;;;10.95;2.13;;;;;;;10.18;100.00;99333.41;5026595;28;20098;-78
2023/10/30 07:39:45;;;;;;;10.52;2.33;;;;;;;10.31;100.00;99349.53;5025553;28;20048;-77
2023/10/30 07:42:29;;;;;;;7.72;1.80;;;;;;;10.39;100.00;99337.88;5018824;28;20096;-76
2023/10/30 07:45:13;;;;;;;9.05;2.15;;;;;;;10.89;100.00;99341.25;5026031;28;20048;-76
2023/10/30 07:47:57;;;;;;;11.77;2.03;;;;;;;11.07;100.00;99297.13;5028343;28;20052;-77
2023/10/30 07:50:42;;;;;;;14.70;2.65;;;;;;;11.76;100.00;99282.66;5015306;28;20677;-78
2023/10/30 07:53:26;;;;;;;7.38;2.28;;;;;;;12.39;100.00;99226.00;5023061;28;20052;-77
2023/10/30 07:56:10;;;;;;;7.75;1.80;;;;;;;12.67;100.00;99084.59;5032640;28;20053;-77
2023/10/30 07:58:55;;;;;;;8.90;1.92;;;;;;;12.50;100.00;98997.78;5014303;28;20125;-79
2023/10/30 08:01:39;;;;;;;12.50;2.75;;;;;;;12.73;100.00;98940.97;5020566;28;20049;-78
2023/10/30 08:04:23;;;;;;;8.27;2.10;;;;;;;13.57;100.00;98889.56;5028401;28;20049;-77
2023/10/30 08:07:10;;;;;;;11.60;2.45;;;;;;;14.07;100.00;98825.66;5029803;28;20073;-77
2023/10/30 08:09:55;;;;;;;6.72;1.98;;;;;;;13.55;100.00;98636.97;5025454;28;20048;-77
2023/10/30 08:12:40;;;;;;;8.27;1.80;;;;;;;14.00;100.00;98700.72;5029332;28;20119;-77
2023/10/30 08:15:24;;;;;;;9.68;2.53;;;;;;;13.93;100.00;98596.25;5022427;28;20477;-77
2023/10/30 08:18:08;;;;;;;5.68;1.80;;;;;;;13.54;100.00;98538.81;5027522;28;20044;-77
2023/10/30 08:20:52;;;;;;;11.85;2.30;;;;;;;14.15;100.00;98647.38;5017510;28;20095;-77
2023/10/30 08:23:37;;;;;;;8.52;2.10;;;;;;;14.20;100.00;98507.94;5025124;28;20129;-76
2023/10/30 11:43:42;;;;;;;10.85;2.08;;;;;;;17.30;91.99;97346.41;5028251;28;20096;-78
2023/10/30 11:46:07;;;;;;;;;;;;;;;17.81;91.91;97474.44;5031046;28;20037;-78
2023/10/30 11:48:35;;;;;;;5.88;1.42;;;;;;;16.63;90.23;96971.19;5023498;28;19917;-77
2023/10/30 11:51:07;;;;;;;4.85;1.95;;;;;;;17.35;92.32;97441.78;5030617;28;20033;-77
2023/10/30 11:53:33;;;;;;;7.40;1.65;;;;;;;17.24;93.22;97547.06;5013975;28;20033;-77
2023/10/30 11:55:58;;;;;;;8.68;1.70;;;;;;;16.95;92.94;97390.75;5028014;28;20040;-77
2023/10/30 11:58:24;;;;;;;9.32;1.77;;;;;;;17.17;94.22;97587.00;5025437;28;20043;-77
2023/10/30 12:00:49;;;;;;;5.82;1.90;;;;;;;17.51;92.61;97594.25;5023027;28;20505;-76
2023/10/30 12:03:16;;;;;;;7.77;2.10;;;;;;;17.09;91.75;97366.59;5022775;28;20532;-77
2023/10/30 12:05:41;;;;;;;7.50;1.20;;;;;;;18.17;92.44;97741.28;5039621;28;20116;-78
2023/10/30 12:08:09;;;;;;;4.47;1.58;;;;;;;17.85;89.77;97380.25;5031191;28;20112;-77
2023/10/30 12:10:35;;;;;;;8.30;2.00;;;;;;;17.49;91.47;97483.97;5023252;28;20074;-77
2023/10/30 12:13:04;;;;;;;8.48;1.48;;;;;;;17.34;91.16;97446.38;5030447;28;20394;-77
2023/10/30 12:15:29;;;;;;;10.32;1.88;;;;;;;16.66;92.37;97326.09;5031479;28;20033;-77
2023/10/30 12:17:56;;;;;;;6.00;1.17;;;;;;;17.09;94.08;97663.06;5029793;28;20017;-77
2023/10/30 12:20:21;;;;;;;10.02;1.75;;;;;;;17.33;91.80;97484.44;5030053;28;20041;-79
2023/10/30 12:22:47;;;;;;;9.95;2.03;;;;;;;16.79;93.91;97513.22;5029886;28;20041;-77
2023/10/30 12:25:16;;;;;;;6.93;1.50;;;;;;;16.68;93.65;97501.69;5013428;28;20044;-77
2023/10/30 12:27:42;;;;;;;12.10;2.78;;;;;;;16.64;95.17;97635.28;5019265;28;20495;-76
2023/10/30 12:30:16;;;;;;;9.57;1.88;;;;;;;16.90;94.58;97645.94;5030986;28;20036;-77
2023/10/30 12:32:42;;;;;;;7.63;1.95;;;;;;;16.95;92.88;97452.72;5025920;28;20045;-77
2023/10/30 12:35:15;;;;;;;4.57;1.45;;;;;;;16.84;92.86;97445.81;5013242;28;20036;-77
2023/10/30 12:37:41;;;;;;;7.43;1.85;;;;;;;16.71;93.84;97525.34;5030701;28;20030;-77
2023/10/30 12:40:10;;;;;;;9.23;1.90;;;;;;;16.49;93.53;97379.59;5029676;28;20059;-78
2023/10/30 12:42:37;;;;;;;9.38;2.33;;;;;;;16.61;93.05;97415.03;5013351;28;20033;-77
2023/10/30 12:45:07;;;;;;;9.40;1.90;;;;;;;16.60;95.32;97656.59;5021586;28;20033;-77
2023/10/30 12:47:34;;;;;;;8.07;2.47;;;;;;;16.27;94.41;97477.72;5020098;28;20033;-77
2023/10/30 12:49:59;;;;;;;8.10;2.15;;;;;;;16.19;98.14;97774.38;5027597;28;20026;-77
2023/10/30 12:52:25;;;;;;;9.43;3.00;;;;;;;16.30;97.84;97780.56;5005989;28;20041;-77
2023/10/30 12:54:50;;;;;;;7.03;2.45;;;;;;;16.62;98.06;97890.63;5032706;28;20072;-77
2023/10/30 12:57:15;;;;;;;9.30;2.30;;;;;;;16.31;97.98;97721.06;5010691;28;20177;-76
2023/10/30 12:59:41;;;;;;;13.47;2.33;;;;;;;16.53;98.98;97846.47;5034963;28;20116;-77
2023/10/30 13:02:06;;;;;;;8.60;2.00;;;;;;;16.27;99.80;97830.34;5037719;28;20374;-77
2023/10/30 13:04:33;;;;;;;9.13;2.33;;;;;;;15.45;100.00;97765.72;5029406;28;20072;-76
2023/10/30 13:06:59;;;;;;;14.50;2.38;;;;;;;16.06;100.00;98114.00;5028709;28;20478;-77
2023/10/30 13:09:24;;;;;;;7.45;1.48;;;;;;;16.19;100.00;98022.00;5012838;28;20040;-76
2023/10/30 13:11:50;;;;;;;6.95;1.73;;;;;;;15.39;100.00;97883.19;5030447;28;20053;-77
2023/10/30 13:14:15;;;;;;;10.03;1.80;;;;;;;16.20;100.00;98204.78;5030562;28;20540;-77
2023/10/30 13:16:41;;;;;;;10.50;2.33;;;;;;;16.52;100.00;98096.13;5030027;28;20277;-76
2023/10/30 13:19:07;;;;;;;11.18;2.45;;;;;;;16.06;100.00;97828.75;5030351;28;20120;-77
2023/10/30 13:21:33;;;;;;;15.57;2.03;;;;;;;15.83;100.00;97715.22;5029153;28;20037;-76
2023/10/30 13:23:59;;;;;;;11.48;2.90;;;;;;;15.41;100.00;97931.34;5030191;28;20065;-76
2023/10/30 13:26:26;;;;;;;11.75;3.17;;;;;;;15.59;100.00;97973.91;5029997;28;20045;-76
2023/10/30 13:28:52;;;;;;;7.85;2.75;;;;;;;15.50;100.00;97999.66;5012232;28;20037;-76
2023/10/30 13:31:17;;;;;;;;;;;;;;;15.62;100.00;98115.09;5018005;28;20056;-76
2023/10/30 13:33:43;;;;;;;13.35;2.80;;;;;;;15.72;100.00;98033.69;5027788;28;20362;-76
2023/10/30 13:36:08;;;;;;;6.33;1.83;;;;;;;16.06;100.00;98178.59;5019715;28;20107;-76
2023/10/30 13:38:34;;;;;;;6.53;1.70;;;;;;;15.68;100.00;98022.59;5026534;28;20040;-76
2023/10/30 13:40:59;;;;;;;7.03;2.10;;;;;;;16.07;100.00;98180.22;5028876;28;20038;-76
2023/10/30 13:43:26;;;;;;;12.13;1.90;;;;;;;16.14;100.00;98046.22;5012463;28;20041;-77
2023/10/30 13:45:52;;;;;;;9.73;2.15;;;;;;;15.99;100.00;98009.28;4996693;28;20037;-77
2023/10/30 13:48:17;;;;;;;17.73;2.67;;;;;;;14.90;100.00;97794.06;5023909;28;20402;-77
2023/10/30 13:50:43;;;;;;;11.85;2.30;;;;;;;15.29;100.00;98100.03;5029788;28;20079;-76
2023/10/30 13:53:08;;;;;;;7.55;1.90;;;;;;;15.29;100.00;97977.25;5020717;28;20056;-78
2023/10/30 13:55:34;;;;;;;8.63;2.03;;;;;;;15.22;100.00;98142.47;5028730;28;20197;-76
2023/10/30 13:57:59;;;;;;;11.02;3.40;;;;;;;14.87;100.00;98200.19;5028320;28;20103;-76
2023/10/30 14:00:25;;;;;;;6.67;2.00;;;;;;;15.19;100.00;98241.38;5009525;28;21015;-76
2023/10/30 14:02:50;;;;;;;6.43;2.23;;;;;;;14.98;100.00;98200.03;5028224;28;20284;-76
2023/10/30 14:05:16;;;;;;;9.10;2.47;;;;;;;14.59;100.00;98155.56;5029981;28;20025;-77
2023/10/30 14:07:41;;;;;;;16.17;2.33;;;;;;;14.74;100.00;98298.06;5031609;28;20041;-76
2023/10/30 14:10:07;;;;;;;14.40;3.10;;;;;;;14.38;100.00;98227.78;5032688;28;20037;-76
2023/10/30 14:12:32;;;;;;;4.95;1.80;;;;;;;14.36;100.00;98297.78;5008448;28;20033;-77
2023/10/30 14:14:58;;;;;;;8.10;2.17;;;;;;;14.65;100.00;98455.31;5028784;28;20033;-76
2023/10/30 14:17:23;;;;;;;9.70;2.00;;;;;;;14.51;100.00;98401.09;5017004;28;20025;-76
2023/10/30 14:19:49;;;;;;;11.37;3.50;;;;;;;14.45;100.00;98471.88;5040934;28;20514;-76
2023/10/30 14:22:14;;;;;;;11.67;2.60;;;;;;;14.31;100.00;98469.50;5031354;28;20600;-77
2023/10/30 14:24:39;;;;;;;13.90;3.87;;;;;;;14.24;100.00;98533.25;5029228;28;20022;-76
2023/10/30 14:27:07;;;;;;;8.95;2.72;;;;;;;14.02;100.00;98511.63;5032014;28;20522;-77
2023/10/30 14:29:32;;;;;;;13.68;3.53;;;;;;;14.07;100.00;98696.03;5025625;28;20030;-76
2023/10/30 14:31:58;;;;;;;7.45;1.90;;;;;;;14.19;100.00;98704.91;5031546;28;20166;-76
2023/10/30 14:34:23;;;;;;;15.83;3.10;;;;;;;13.98;100.00;98684.03;5022582;28;20033;-77
2023/10/30 14:36:48;;;;;;;11.30;2.27;;;;;;;13.87;100.00;98734.78;5036426;28;20029;-76
2023/10/30 14:39:14;;;;;;;7.17;2.27;;;;;;;13.88;100.00;98749.84;5015522;28;20539;-76
2023/10/30 14:41:40;;;;;;;10.17;2.10;;;;;;;13.92;100.00;98763.59;5023693;28;20379;-76
2023/10/30 14:44:05;;;;;;;10.10;2.00;;;;;;;13.84;100.00;98756.72;5025958;28;20039;-76